createdAt,value
2023-01-17T00:01:48.332Z,7.33
2023-01-17T00:06:23.994Z,7.35
2023-01-17T00:10:41.403Z,7.30
2023-01-17T00:14:59.292Z,7.18
2023-01-17T00:19:33.961Z,7.13
2023-01-17T00:24:08.851Z,7.19
2023-01-17T00:28:26.371Z,6.83
2023-01-17T00:32:42.556Z,6.88
2023-01-17T00:36:58.811Z,6.91
2023-01-17T00:41:15.671Z,6.63
2023-01-17T00:45:50.353Z,6.10
2023-01-17T00:50:25.656Z,6.60
2023-01-17T00:55:00.539Z,6.13
2023-01-17T00:59:35.487Z,5.94
2023-01-17T01:04:10.501Z,5.70
2023-01-17T01:08:47.911Z,6.32
2023-01-17T01:13:22.816Z,6.36
2023-01-17T01:17:57.758Z,6.62
2023-01-17T01:22:32.864Z,6.58
2023-01-17T01:27:07.535Z,6.39
2023-01-17T01:31:42.474Z,6.60
2023-01-17T01:35:58.801Z,7.03
2023-01-17T01:40:17.182Z,6.81
2023-01-17T01:44:54.429Z,6.77
2023-01-17T01:49:19.458Z,7.01
2023-01-17T01:53:39.251Z,7.05
2023-01-17T01:57:59.834Z,6.87
2023-01-17T02:02:16.156Z,6.75
2023-01-17T02:06:42.190Z,6.97
2023-01-17T02:10:58.587Z,6.76
2023-01-17T02:15:14.840Z,6.72
2023-01-17T02:19:56.745Z,6.95
2023-01-17T02:24:28.093Z,6.86
2023-01-17T02:29:11.114Z,6.74
2023-01-17T02:33:44.804Z,6.74
2023-01-17T02:38:00.899Z,7.19
2023-01-17T02:42:19.766Z,7.02
2023-01-17T02:46:57.577Z,6.70
2023-01-17T02:51:39.130Z,6.94
2023-01-17T02:55:58.343Z,7.09
2023-01-17T03:00:32.705Z,7.06
2023-01-17T03:05:24.267Z,7.37
2023-01-17T03:09:43.719Z,7.34
2023-01-17T03:14:00.003Z,7.06
2023-01-17T03:18:17.338Z,7.15
2023-01-17T03:22:33.479Z,6.98
2023-01-17T03:26:49.632Z,7.19
2023-01-17T03:31:06.126Z,7.16
2023-01-17T03:35:22.346Z,6.92
2023-01-17T03:39:38.455Z,7.01
2023-01-17T03:43:54.672Z,7.26
2023-01-17T03:48:12.141Z,7.41
2023-01-17T03:52:28.446Z,7.29
2023-01-17T03:56:44.678Z,7.03
2023-01-17T04:01:01.019Z,7.30
2023-01-17T04:05:17.294Z,7.13
2023-01-17T04:09:34.698Z,7.50
2023-01-17T04:13:50.957Z,7.68
2023-01-17T04:18:07.441Z,7.56
2023-01-17T04:22:23.558Z,7.59
2023-01-17T04:26:39.737Z,7.40
2023-01-17T04:31:00.382Z,7.58
2023-01-17T04:35:16.754Z,7.48
2023-01-17T04:39:32.977Z,7.53
2023-01-17T04:43:49.087Z,7.45
2023-01-17T04:48:08.587Z,7.48
2023-01-17T04:52:25.536Z,7.40
2023-01-17T04:56:41.776Z,7.52
2023-01-17T05:01:06.308Z,7.66
2023-01-17T05:05:22.595Z,7.71
2023-01-17T05:09:38.757Z,7.65
2023-01-17T05:13:54.869Z,7.21
2023-01-17T05:18:15.375Z,7.72
2023-01-17T05:22:31.625Z,7.34
2023-01-17T05:26:54.987Z,7.36
2023-01-17T05:31:11.353Z,7.20
2023-01-17T05:35:35.117Z,7.42
2023-01-17T05:39:51.212Z,7.59
2023-01-17T05:44:07.474Z,7.06
2023-01-17T05:48:23.580Z,6.92
2023-01-17T05:52:40.246Z,6.91
2023-01-17T05:56:56.434Z,6.68
2023-01-17T06:01:12.564Z,6.79
2023-01-17T06:05:29.767Z,6.69
2023-01-17T06:09:46.013Z,7.08
2023-01-17T06:14:02.136Z,6.78
2023-01-17T06:18:18.763Z,6.68
2023-01-17T06:22:34.968Z,6.71
2023-01-17T06:26:51.195Z,6.67
2023-01-17T06:31:10.536Z,5.76
2023-01-17T06:35:26.722Z,6.07
2023-01-17T06:39:43.006Z,6.11
2023-01-17T06:43:59.259Z,5.65
2023-01-17T06:48:15.449Z,5.47
2023-01-17T06:52:31.592Z,5.30
2023-01-17T06:56:49.756Z,4.86
2023-01-17T07:01:13.573Z,5.23
2023-01-17T07:05:30.232Z,4.73
2023-01-17T07:09:46.446Z,5.12
2023-01-17T07:14:02.604Z,5.42
2023-01-17T07:18:23.487Z,5.34
2023-01-17T07:22:39.794Z,5.65
2023-01-17T07:26:55.957Z,5.63
2023-01-17T07:31:13.034Z,5.51
2023-01-17T07:35:29.409Z,5.43
2023-01-17T07:39:45.784Z,5.60
2023-01-17T07:44:02.137Z,5.51
2023-01-17T07:48:19.770Z,5.04
2023-01-17T07:52:37.977Z,5.11
2023-01-17T07:56:54.083Z,4.56
2023-01-17T08:01:12.473Z,4.72
2023-01-17T08:05:30.868Z,4.87
2023-01-17T08:09:49.883Z,4.94
2023-01-17T08:14:06.091Z,5.13
2023-01-17T08:18:22.296Z,4.67
2023-01-17T08:22:38.436Z,4.95
2023-01-17T08:26:57.733Z,5.31
2023-01-17T08:31:13.948Z,5.30
2023-01-17T08:35:30.202Z,5.05
2023-01-17T08:39:46.341Z,5.58
2023-01-17T08:44:02.854Z,5.41
2023-01-17T08:48:19.103Z,5.37
2023-01-17T08:52:36.282Z,5.75
2023-01-17T08:56:53.219Z,6.41
2023-01-17T09:01:09.555Z,6.32
2023-01-17T09:05:25.976Z,6.44
2023-01-17T09:09:42.167Z,6.68
2023-01-17T09:13:58.509Z,7.00
2023-01-17T09:18:14.621Z,7.06
2023-01-17T09:22:30.729Z,6.96
2023-01-17T09:26:46.969Z,7.11
2023-01-17T09:31:08.469Z,7.00
2023-01-17T09:35:24.881Z,6.83
2023-01-17T09:39:41.001Z,6.99
2023-01-17T09:44:02.153Z,7.14
2023-01-17T09:48:25.995Z,7.02
2023-01-17T09:52:44.266Z,7.15
2023-01-17T09:57:31.105Z,7.54
2023-01-17T10:02:44.662Z,7.55
2023-01-17T10:07:10.547Z,7.41
2023-01-17T10:11:30.488Z,7.64
2023-01-17T10:15:55.647Z,7.85
2023-01-17T10:20:34.418Z,8.69
2023-01-17T10:25:27.579Z,9.06
2023-01-17T10:29:46.095Z,8.60
2023-01-17T10:34:07.123Z,9.33
2023-01-17T10:38:35.188Z,9.69
2023-01-17T10:43:30.248Z,9.94
2023-01-17T10:47:51.098Z,10.08
2023-01-17T10:52:25.942Z,10.55
2023-01-17T10:56:42.251Z,10.93
2023-01-17T11:01:07.332Z,11.36
2023-01-17T11:05:32.031Z,11.43
2023-01-17T11:09:50.644Z,12.29
2023-01-17T11:14:23.796Z,12.37
2023-01-17T11:18:40.958Z,12.54
2023-01-17T11:23:06.790Z,12.75
2023-01-17T11:27:34.339Z,13.23
2023-01-17T11:31:50.580Z,13.11
2023-01-17T11:36:06.997Z,13.45
2023-01-17T11:40:29.465Z,13.40
2023-01-17T11:44:45.603Z,13.82
2023-01-17T11:49:02.161Z,14.08
2023-01-17T11:53:31.589Z,14.41
2023-01-17T11:57:51.131Z,14.92
2023-01-17T12:02:39.337Z,14.22
2023-01-17T12:07:03.177Z,13.97
2023-01-17T12:12:24.118Z,13.55
2023-01-17T12:16:58.974Z,14.19
2023-01-17T12:21:30.056Z,13.89
2023-01-17T12:25:55.887Z,14.04
2023-01-17T12:30:25.353Z,12.70
2023-01-17T12:34:51.024Z,12.90
2023-01-17T12:39:12.088Z,13.01
2023-01-17T12:43:40.781Z,12.60
2023-01-17T12:48:02.696Z,12.58
2023-01-17T12:52:32.717Z,12.91
2023-01-17T12:57:02.736Z,12.99
2023-01-17T13:01:43.321Z,12.92
2023-01-17T13:06:03.404Z,12.73
2023-01-17T13:10:19.694Z,12.57
2023-01-17T13:14:36.133Z,12.38
2023-01-17T13:18:54.822Z,12.20
2023-01-17T13:23:36.627Z,11.90
2023-01-17T13:28:09.712Z,11.55
2023-01-17T13:32:34.924Z,11.62
2023-01-17T13:37:00.796Z,11.33
2023-01-17T13:41:44.060Z,11.08
2023-01-17T13:46:03.561Z,10.87
2023-01-17T13:50:40.725Z,10.73
2023-01-17T13:54:59.324Z,10.61
2023-01-17T13:59:29.418Z,10.62
2023-01-17T14:03:51.742Z,10.30
2023-01-17T14:08:18.945Z,10.21
2023-01-17T14:12:35.729Z,10.13
2023-01-17T14:16:54.099Z,10.02
2023-01-17T14:21:24.103Z,9.85
2023-01-17T14:25:41.244Z,9.76
2023-01-17T14:30:03.730Z,9.83
2023-01-17T14:34:23.025Z,9.96
2023-01-17T14:38:43.718Z,9.71
2023-01-17T14:43:06.338Z,9.53
2023-01-17T14:47:24.709Z,9.42
2023-01-17T14:51:40.803Z,9.32
2023-01-17T14:56:18.503Z,9.35
2023-01-17T15:00:39.550Z,9.37
2023-01-17T15:04:56.038Z,9.22
2023-01-17T15:09:16.660Z,9.38
2023-01-17T15:13:44.224Z,9.17
2023-01-17T15:18:21.544Z,8.91
2023-01-17T15:22:38.532Z,9.13
2023-01-17T15:26:55.753Z,8.61
2023-01-17T15:31:26.034Z,8.94
2023-01-17T15:35:42.275Z,8.80
2023-01-17T15:40:18.886Z,8.79
2023-01-17T15:44:53.281Z,8.70
2023-01-17T15:49:22.639Z,8.26
2023-01-17T15:53:41.506Z,7.97
2023-01-17T15:57:59.944Z,8.02
2023-01-17T16:02:45.751Z,8.35
2023-01-17T16:07:34.218Z,8.18
2023-01-17T16:11:52.452Z,8.08
2023-01-17T16:16:18.184Z,8.17
2023-01-17T16:20:39.017Z,7.92
2023-01-17T16:24:59.139Z,8.14
2023-01-17T16:29:15.248Z,8.00
2023-01-17T16:33:31.375Z,7.83
2023-01-17T16:37:51.283Z,7.87
2023-01-17T16:42:11.053Z,7.95
2023-01-17T16:46:27.925Z,7.51
2023-01-17T16:50:50.862Z,7.79
2023-01-17T16:55:09.364Z,8.09
2023-01-17T16:59:26.085Z,8.05
2023-01-17T17:03:45.862Z,7.80
2023-01-17T17:08:02.112Z,7.86
2023-01-17T17:12:18.504Z,8.07
2023-01-17T17:16:34.761Z,7.78
2023-01-17T17:20:50.910Z,7.77
2023-01-17T17:25:07.883Z,7.70
2023-01-17T17:29:24.141Z,7.76
2023-01-17T17:33:40.441Z,7.77
2023-01-17T17:37:56.732Z,7.52
2023-01-17T17:42:13.827Z,7.58
2023-01-17T17:46:30.834Z,7.23
2023-01-17T17:50:59.596Z,7.47
2023-01-17T17:55:19.217Z,7.21
2023-01-17T17:59:35.507Z,7.22
2023-01-17T18:03:53.207Z,7.27
2023-01-17T18:08:11.217Z,7.18
2023-01-17T18:12:27.393Z,7.14
2023-01-17T18:16:45.216Z,7.02
2023-01-17T18:21:17.956Z,7.23
2023-01-17T18:25:36.539Z,7.22
2023-01-17T18:29:52.900Z,6.75
2023-01-17T18:34:12.400Z,7.00
2023-01-17T18:38:29.066Z,7.33
2023-01-17T18:42:45.293Z,7.31
2023-01-17T18:47:04.834Z,7.33
2023-01-17T18:51:21.941Z,7.14
2023-01-17T18:55:38.030Z,6.45
2023-01-17T18:59:55.394Z,7.11
2023-01-17T19:04:13.693Z,6.90
2023-01-17T19:08:31.727Z,6.86
2023-01-17T19:12:47.964Z,6.20
2023-01-17T19:17:04.172Z,6.73
2023-01-17T19:21:22.898Z,6.73
2023-01-17T19:25:39.046Z,6.65
2023-01-17T19:29:55.272Z,6.76
2023-01-17T19:34:14.313Z,6.40
2023-01-17T19:38:31.129Z,6.53
2023-01-17T19:42:47.711Z,5.93
2023-01-17T19:47:03.960Z,5.29
2023-01-17T19:51:21.043Z,5.80
2023-01-17T19:55:40.214Z,5.19
2023-01-17T19:59:56.462Z,5.48
2023-01-17T20:04:13.006Z,5.69
2023-01-17T20:08:29.168Z,5.23
2023-01-17T20:12:45.395Z,5.48
2023-01-17T20:17:01.659Z,5.43
2023-01-17T20:21:20.157Z,5.13
2023-01-17T20:25:36.417Z,5.57
2023-01-17T20:29:52.776Z,5.24
2023-01-17T20:34:11.706Z,4.90
2023-01-17T20:38:30.728Z,5.14
2023-01-17T20:42:46.909Z,4.88
2023-01-17T20:47:03.603Z,4.81
2023-01-17T20:51:22.915Z,4.81
2023-01-17T20:55:40.212Z,4.99
2023-01-17T20:59:56.465Z,4.84
2023-01-17T21:04:13.159Z,4.61
2023-01-17T21:08:38.137Z,4.75
2023-01-17T21:12:54.289Z,4.50
2023-01-17T21:17:10.989Z,4.40
2023-01-17T21:21:29.380Z,4.62
2023-01-17T21:25:57.369Z,4.03
2023-01-17T21:30:14.200Z,4.48
2023-01-17T21:34:32.791Z,4.06
2023-01-17T21:38:54.911Z,4.19
2023-01-17T21:43:11.896Z,3.40
2023-01-17T21:47:27.975Z,4.23
2023-01-17T21:51:52.983Z,3.70
2023-01-17T21:56:30.039Z,3.73
2023-01-17T22:00:46.217Z,3.42
2023-01-17T22:05:02.313Z,3.94
2023-01-17T22:09:18.476Z,4.22
2023-01-17T22:13:36.841Z,4.52
2023-01-17T22:17:53.550Z,4.34
2023-01-17T22:22:09.700Z,4.19
2023-01-17T22:26:28.986Z,4.04
2023-01-17T22:30:45.231Z,4.19
2023-01-17T22:35:01.484Z,4.26
2023-01-17T22:39:17.618Z,4.31
2023-01-17T22:43:37.896Z,4.59
2023-01-17T22:47:54.038Z,4.51
2023-01-17T22:52:10.206Z,4.48
2023-01-17T22:56:29.504Z,4.22
2023-01-17T23:00:47.546Z,4.29
2023-01-17T23:05:03.765Z,4.40
2023-01-17T23:09:20.133Z,4.64
2023-01-17T23:13:36.320Z,4.64
2023-01-17T23:18:11.330Z,4.67
2023-01-17T23:22:30.221Z,5.00
2023-01-17T23:27:06.328Z,5.25
2023-01-17T23:31:23.590Z,5.14
2023-01-17T23:35:42.640Z,5.17
2023-01-17T23:39:58.855Z,5.19
2023-01-17T23:44:15.344Z,5.00
2023-01-17T23:48:31.747Z,5.05
2023-01-17T23:52:47.862Z,5.05
2023-01-17T23:57:03.982Z,4.91
